createdAt,value
2023-05-17T00:00:12.524Z,4.90
2023-05-17T00:02:39.991Z,5.38
2023-05-17T00:05:07.811Z,5.10
2023-05-17T00:07:35.307Z,4.65
2023-05-17T00:10:03.219Z,4.82
2023-05-17T00:12:30.736Z,5.85
2023-05-17T00:14:58.158Z,5.30
2023-05-17T00:17:26.117Z,5.25
2023-05-17T00:19:53.717Z,5.32
2023-05-17T00:22:21.189Z,5.18
2023-05-17T00:24:48.720Z,5.30
2023-05-17T00:27:16.161Z,5.53
2023-05-17T00:29:43.510Z,5.25
2023-05-17T00:32:11.013Z,5.53
2023-05-17T00:34:38.484Z,5.47
2023-05-17T00:37:05.990Z,5.38
2023-05-17T00:39:33.433Z,5.45
2023-05-17T00:42:01.678Z,6.20
2023-05-17T00:44:29.088Z,5.75
2023-05-17T00:46:57.602Z,5.60
2023-05-17T00:49:25.494Z,5.47
2023-05-17T00:51:53.417Z,5.28
2023-05-17T00:54:21.013Z,5.50
2023-05-17T00:56:49.027Z,5.35
2023-05-17T00:59:16.682Z,5.68
2023-05-17T01:01:44.494Z,5.53
2023-05-17T01:04:12.117Z,5.78
2023-05-17T01:06:39.907Z,5.63
2023-05-17T01:09:08.371Z,5.18
2023-05-17T01:11:43.500Z,5.82
2023-05-17T01:14:37.845Z,6.40
2023-05-17T01:17:17.301Z,6.07
2023-05-17T01:20:11.011Z,5.70
2023-05-17T01:22:46.114Z,6.07
2023-05-17T01:25:29.977Z,5.50
2023-05-17T01:28:00.530Z,5.65
2023-05-17T01:30:29.918Z,5.85
2023-05-17T01:32:59.195Z,5.75
2023-05-17T01:35:27.178Z,6.82
2023-05-17T01:37:55.037Z,6.18
2023-05-17T01:40:22.716Z,5.60
2023-05-17T01:42:57.641Z,6.38
2023-05-17T01:45:26.951Z,6.32
2023-05-17T01:48:10.467Z,5.80
2023-05-17T01:50:39.405Z,6.20
2023-05-17T01:53:11.111Z,5.60
2023-05-17T01:55:44.408Z,6.05
2023-05-17T01:58:13.557Z,6.47
2023-05-17T02:00:43.155Z,5.75
2023-05-17T02:03:17.481Z,6.03
2023-05-17T02:05:45.033Z,6.80
2023-05-17T02:08:12.910Z,6.32
2023-05-17T02:10:40.650Z,6.40
2023-05-17T02:13:08.177Z,5.50
2023-05-17T02:15:35.719Z,6.72
2023-05-17T02:18:03.540Z,6.57
2023-05-17T02:20:31.444Z,6.50
2023-05-17T02:22:59.049Z,6.18
2023-05-17T02:25:26.710Z,6.85
2023-05-17T02:27:54.536Z,6.68
2023-05-17T02:30:22.465Z,6.10
2023-05-17T02:32:50.277Z,6.63
2023-05-17T02:35:17.927Z,6.38
2023-05-17T02:37:45.529Z,6.50
2023-05-17T02:40:13.365Z,6.07
2023-05-17T02:42:40.798Z,5.85
2023-05-17T02:45:08.667Z,6.50
2023-05-17T02:47:36.272Z,6.32
2023-05-17T02:50:03.963Z,6.60
2023-05-17T02:52:31.489Z,5.57
2023-05-17T02:54:59.030Z,5.85
2023-05-17T02:57:26.654Z,6.88
2023-05-17T02:59:54.055Z,6.45
2023-05-17T03:02:21.499Z,7.53
2023-05-17T03:04:49.124Z,6.93
2023-05-17T03:07:16.519Z,6.55
2023-05-17T03:09:43.981Z,6.72
2023-05-17T03:12:11.461Z,6.72
2023-05-17T03:14:39.067Z,5.93
2023-05-17T03:17:06.467Z,6.45
2023-05-17T03:19:33.862Z,6.45
2023-05-17T03:22:01.296Z,6.32
2023-05-17T03:24:28.735Z,5.95
2023-05-17T03:26:56.412Z,6.38
2023-05-17T03:29:23.811Z,6.32
2023-05-17T03:31:51.362Z,6.38
2023-05-17T03:34:18.712Z,6.38
2023-05-17T03:36:46.091Z,6.18
2023-05-17T03:39:13.609Z,6.43
2023-05-17T03:41:42.225Z,6.15
2023-05-17T03:44:09.674Z,5.80
2023-05-17T03:46:37.128Z,6.00
2023-05-17T03:49:04.551Z,5.70
2023-05-17T03:51:32.028Z,6.50
2023-05-17T03:54:00.601Z,6.38
2023-05-17T03:56:28.149Z,6.30
2023-05-17T03:58:55.553Z,6.93
2023-05-17T04:01:22.967Z,6.70
2023-05-17T04:03:51.521Z,6.15
2023-05-17T04:06:19.045Z,6.85
2023-05-17T04:08:47.733Z,6.78
2023-05-17T04:11:15.305Z,6.43
2023-05-17T04:13:43.581Z,6.25
2023-05-17T04:16:13.771Z,6.65
2023-05-17T04:18:41.346Z,6.60
2023-05-17T04:21:08.857Z,6.78
2023-05-17T04:23:37.440Z,7.15
2023-05-17T04:26:06.204Z,6.43
2023-05-17T04:28:35.243Z,6.57
2023-05-17T04:31:02.788Z,6.60
2023-05-17T04:33:31.236Z,6.25
2023-05-17T04:35:58.650Z,6.75
2023-05-17T04:38:26.118Z,6.80
2023-05-17T04:41:14.015Z,6.10
2023-05-17T04:43:42.085Z,6.05
2023-05-17T04:46:09.832Z,6.50
2023-05-17T04:48:39.021Z,6.93
2023-05-17T04:51:06.813Z,6.53
2023-05-17T04:53:35.753Z,6.07
2023-05-17T04:56:04.215Z,6.25
2023-05-17T04:58:32.483Z,6.13
2023-05-17T05:00:59.884Z,6.90
2023-05-17T05:03:28.169Z,7.10
2023-05-17T05:05:55.730Z,6.68
2023-05-17T05:08:23.183Z,6.18
2023-05-17T05:10:51.852Z,6.35
2023-05-17T05:13:19.273Z,6.40
2023-05-17T05:15:46.855Z,5.32
2023-05-17T05:18:14.443Z,5.10
2023-05-17T05:20:43.834Z,5.05
2023-05-17T05:23:11.273Z,5.10
2023-05-17T05:25:38.860Z,4.47
2023-05-17T05:28:06.602Z,3.80
2023-05-17T05:30:34.285Z,4.68
2023-05-17T05:33:01.791Z,4.80
2023-05-17T05:35:30.542Z,4.20
2023-05-17T05:37:58.477Z,4.00
2023-05-17T05:40:26.025Z,4.70
2023-05-17T05:42:53.805Z,4.43
2023-05-17T05:45:21.876Z,4.50
2023-05-17T05:47:49.539Z,4.47
2023-05-17T05:50:17.138Z,4.60
2023-05-17T05:52:44.566Z,4.68
2023-05-17T05:55:12.248Z,4.18
2023-05-17T05:57:39.821Z,4.30
2023-05-17T06:00:08.070Z,4.28
2023-05-17T06:02:36.198Z,4.28
2023-05-17T06:05:03.958Z,4.30
2023-05-17T06:07:31.549Z,4.57
2023-05-17T06:09:58.940Z,4.60
2023-05-17T06:12:26.805Z,4.20
2023-05-17T06:14:57.221Z,4.88
2023-05-17T06:17:30.347Z,4.47
2023-05-17T06:19:57.951Z,4.22
2023-05-17T06:22:31.573Z,4.20
2023-05-17T06:24:59.096Z,3.92
2023-05-17T06:27:35.167Z,5.32
2023-05-17T06:30:06.465Z,4.30
2023-05-17T06:32:35.176Z,3.60
2023-05-17T06:35:02.847Z,3.70
2023-05-17T06:37:30.414Z,3.33
2023-05-17T06:40:16.668Z,4.00
2023-05-17T06:42:44.703Z,3.97
2023-05-17T06:45:12.501Z,4.00
2023-05-17T06:47:40.143Z,3.92
2023-05-17T06:50:08.890Z,3.88
2023-05-17T06:52:36.702Z,4.15
2023-05-17T06:55:05.770Z,4.28
2023-05-17T06:57:37.976Z,3.42
2023-05-17T07:00:11.290Z,4.05
2023-05-17T07:02:39.004Z,3.80
2023-05-17T07:10:20.139Z,3.47
2023-05-17T07:12:48.052Z,3.60
2023-05-17T07:15:21.671Z,3.45
2023-05-17T07:17:49.225Z,3.35
2023-05-17T07:20:16.771Z,3.42
2023-05-17T07:22:56.504Z,3.60
2023-05-17T07:25:23.887Z,3.88
2023-05-17T07:27:51.545Z,3.55
2023-05-17T07:30:19.278Z,3.70
2023-05-17T07:32:46.959Z,4.13
2023-05-17T07:35:14.951Z,4.25
2023-05-17T07:37:44.272Z,3.72
2023-05-17T07:40:13.085Z,3.65
2023-05-17T07:42:42.232Z,4.10
2023-05-17T07:45:11.287Z,3.03
2023-05-17T07:48:05.052Z,4.10
2023-05-17T07:50:33.119Z,3.88
2023-05-17T07:53:00.668Z,3.00
2023-05-17T07:55:28.321Z,3.25
2023-05-17T07:57:55.818Z,3.38
2023-05-17T08:00:24.023Z,3.60
2023-05-17T08:02:51.851Z,3.40
2023-05-17T08:05:19.435Z,3.50
2023-05-17T08:07:46.800Z,2.88
2023-05-17T08:10:14.166Z,3.05
2023-05-17T08:12:41.594Z,3.55
2023-05-17T08:15:09.659Z,3.05
2023-05-17T08:17:37.412Z,3.42
2023-05-17T08:20:08.103Z,3.08
2023-05-17T08:22:35.655Z,3.25
2023-05-17T08:25:04.861Z,3.00
2023-05-17T08:27:32.695Z,3.40
2023-05-17T08:30:00.651Z,2.70
2023-05-17T08:32:28.987Z,2.55
2023-05-17T08:34:57.116Z,2.67
2023-05-17T08:37:24.844Z,2.97
2023-05-17T08:40:02.453Z,2.75
2023-05-17T08:42:31.045Z,2.88
2023-05-17T08:45:01.364Z,2.63
2023-05-17T08:47:35.896Z,3.00
2023-05-17T08:50:07.820Z,2.72
2023-05-17T08:52:36.891Z,2.50
2023-05-17T08:55:07.257Z,2.88
2023-05-17T08:57:37.856Z,2.60
2023-05-17T09:00:15.295Z,2.63
2023-05-17T09:02:43.232Z,3.00
2023-05-17T09:05:11.368Z,2.15
2023-05-17T09:07:38.846Z,2.55
2023-05-17T09:10:06.957Z,2.83
2023-05-17T09:12:39.695Z,2.65
2023-05-17T09:15:18.742Z,2.75
2023-05-17T09:17:53.973Z,2.67
2023-05-17T09:20:29.129Z,2.72
2023-05-17T09:22:56.664Z,2.75
2023-05-17T09:25:26.585Z,2.45
2023-05-17T09:27:55.468Z,2.60
2023-05-17T09:30:37.389Z,2.55
2023-05-17T09:33:27.298Z,2.20
2023-05-17T09:35:54.772Z,2.22
2023-05-17T09:38:29.910Z,2.50
2023-05-17T09:41:02.985Z,2.40
2023-05-17T09:43:47.707Z,2.50
2023-05-17T09:46:17.575Z,2.47
2023-05-17T09:48:48.230Z,2.28
2023-05-17T09:51:40.084Z,2.67
2023-05-17T09:54:12.719Z,2.00
2023-05-17T09:59:14.957Z,2.28
2023-05-17T10:01:46.144Z,1.95
2023-05-17T10:04:14.990Z,2.30
2023-05-17T10:09:24.233Z,2.15
2023-05-17T10:11:55.439Z,2.40
2023-05-17T10:14:36.741Z,2.33
2023-05-17T10:17:23.858Z,2.70
2023-05-17T10:19:55.174Z,2.33
2023-05-17T10:22:37.760Z,2.20
2023-05-17T10:25:13.738Z,2.17
2023-05-17T10:27:51.121Z,2.42
2023-05-17T10:30:19.215Z,2.08
2023-05-17T10:32:50.356Z,2.28
2023-05-17T10:35:29.664Z,2.40
2023-05-17T10:37:58.904Z,2.38
2023-05-17T10:40:28.290Z,2.55
2023-05-17T10:42:58.214Z,2.60
2023-05-17T10:45:27.854Z,2.53
2023-05-17T10:47:58.908Z,2.33
2023-05-17T10:50:28.552Z,2.53
2023-05-17T10:53:02.632Z,2.30
2023-05-17T10:55:41.998Z,2.30
2023-05-17T10:58:43.728Z,2.50
2023-05-17T11:01:11.558Z,2.60
2023-05-17T11:03:41.258Z,2.58
2023-05-17T11:06:34.008Z,2.40
2023-05-17T11:09:23.969Z,2.92
2023-05-17T11:12:34.497Z,2.88
2023-05-17T11:15:24.051Z,2.47
2023-05-17T11:17:57.555Z,2.42
2023-05-17T11:20:31.693Z,2.80
2023-05-17T11:23:05.102Z,2.38
2023-05-17T11:25:36.827Z,2.28
2023-05-17T11:28:22.751Z,2.40
2023-05-17T11:30:54.136Z,2.10
2023-05-17T11:33:38.907Z,2.58
2023-05-17T11:36:11.962Z,2.60
2023-05-17T11:38:39.487Z,2.58
2023-05-17T11:43:53.662Z,2.85
2023-05-17T11:46:23.152Z,2.78
2023-05-17T11:49:01.195Z,2.65
2023-05-17T11:51:29.146Z,2.60
2023-05-17T11:53:57.368Z,2.83
2023-05-17T11:56:35.545Z,2.20
2023-05-17T11:59:04.230Z,2.22
2023-05-17T12:01:45.844Z,2.40
2023-05-17T12:04:13.523Z,2.90
2023-05-17T12:06:41.288Z,2.53
2023-05-17T12:09:13.148Z,3.22
2023-05-17T12:11:42.557Z,2.50
2023-05-17T12:14:13.527Z,2.60
2023-05-17T12:16:42.401Z,2.50
2023-05-17T12:19:22.458Z,2.80
2023-05-17T12:21:51.258Z,2.75
2023-05-17T12:24:23.467Z,3.15
2023-05-17T12:26:51.136Z,2.70
2023-05-17T12:29:25.186Z,3.13
2023-05-17T12:31:55.543Z,2.38
2023-05-17T12:34:25.544Z,2.97
2023-05-17T12:36:54.918Z,2.65
2023-05-17T12:39:25.725Z,2.65
2023-05-17T12:41:57.372Z,2.80
2023-05-17T12:44:26.376Z,2.72
2023-05-17T12:46:56.496Z,2.97
2023-05-17T12:49:24.209Z,3.20
2023-05-17T12:51:51.649Z,2.70
2023-05-17T12:54:26.508Z,3.08
2023-05-17T12:56:53.963Z,2.42
2023-05-17T12:59:22.050Z,2.80
2023-05-17T13:01:55.616Z,2.60
2023-05-17T13:04:32.048Z,3.13
2023-05-17T13:07:04.043Z,2.80
2023-05-17T13:09:33.495Z,3.05
2023-05-17T13:12:10.085Z,2.80
2023-05-17T13:14:37.706Z,2.72
2023-05-17T13:17:06.804Z,3.03
2023-05-17T13:19:36.195Z,2.95
2023-05-17T13:22:06.888Z,2.58
2023-05-17T13:24:38.507Z,2.90
2023-05-17T13:27:10.523Z,2.92
2023-05-17T13:29:40.730Z,3.03
2023-05-17T13:32:10.315Z,2.60
2023-05-17T13:34:37.726Z,2.88
2023-05-17T13:37:08.695Z,2.90
2023-05-17T13:39:42.088Z,2.90
2023-05-17T13:42:10.924Z,3.30
2023-05-17T13:44:48.429Z,3.22
2023-05-17T13:47:16.094Z,2.95
2023-05-17T13:49:43.574Z,3.28
2023-05-17T13:52:19.957Z,3.60
2023-05-17T13:54:47.464Z,2.88
2023-05-17T13:57:14.958Z,3.40
2023-05-17T13:59:45.524Z,3.25
2023-05-17T14:02:48.184Z,3.28
2023-05-17T14:05:15.628Z,3.05
2023-05-17T14:07:44.004Z,3.25
2023-05-17T14:10:14.574Z,3.35
2023-05-17T14:12:42.122Z,3.72
2023-05-17T14:15:10.761Z,3.42
2023-05-17T14:17:38.431Z,3.63
2023-05-17T14:20:06.686Z,2.97
2023-05-17T14:22:34.236Z,3.40
2023-05-17T14:25:01.700Z,3.30
2023-05-17T14:27:29.057Z,2.80
2023-05-17T14:29:56.750Z,3.20
2023-05-17T14:32:24.208Z,3.00
2023-05-17T14:34:51.603Z,3.00
2023-05-17T14:37:19.547Z,3.42
2023-05-17T14:40:05.325Z,3.30
2023-05-17T14:42:34.082Z,3.50
2023-05-17T14:45:05.009Z,3.15
2023-05-17T14:47:35.136Z,3.13
2023-05-17T14:50:04.046Z,3.53
2023-05-17T14:52:33.678Z,3.45
2023-05-17T14:55:01.387Z,3.53
2023-05-17T14:57:28.833Z,3.25
2023-05-17T14:59:56.411Z,3.67
2023-05-17T15:02:24.056Z,3.05
2023-05-17T15:04:51.740Z,3.42
2023-05-17T15:07:19.136Z,3.55
2023-05-17T15:09:47.450Z,3.53
2023-05-17T15:12:18.016Z,3.25
2023-05-17T15:14:46.576Z,3.45
2023-05-17T15:17:15.544Z,3.70
2023-05-17T15:19:43.000Z,3.45
2023-05-17T15:22:11.830Z,3.83
2023-05-17T15:24:40.611Z,3.80
2023-05-17T15:27:08.132Z,3.78
2023-05-17T15:29:38.939Z,3.45
2023-05-17T15:32:07.180Z,3.38
2023-05-17T15:34:34.929Z,3.60
2023-05-17T15:37:02.565Z,3.30
2023-05-17T15:39:29.986Z,3.17
2023-05-17T15:41:57.372Z,3.30
2023-05-17T15:44:25.368Z,3.13
2023-05-17T15:46:53.246Z,3.40
2023-05-17T15:49:20.710Z,4.00
2023-05-17T15:51:48.259Z,3.63
2023-05-17T15:54:15.851Z,2.88
2023-05-17T15:56:43.191Z,3.90
2023-05-17T15:59:10.598Z,3.80
2023-05-17T16:01:38.131Z,2.92
2023-05-17T16:04:05.942Z,3.38
2023-05-17T16:06:36.200Z,3.20
2023-05-17T16:09:04.004Z,3.58
2023-05-17T16:11:31.399Z,3.42
2023-05-17T16:13:59.239Z,3.10
2023-05-17T16:16:26.712Z,3.20
2023-05-17T16:18:54.330Z,3.45
2023-05-17T16:21:22.131Z,3.65
2023-05-17T16:23:49.584Z,4.28
2023-05-17T16:26:16.989Z,4.03
2023-05-17T16:28:44.996Z,3.88
2023-05-17T16:31:12.616Z,3.83
2023-05-17T16:33:41.491Z,3.58
2023-05-17T16:36:09.086Z,3.65
2023-05-17T16:38:36.884Z,4.00
2023-05-17T16:41:04.285Z,4.13
2023-05-17T16:43:31.932Z,4.63
2023-05-17T16:45:59.479Z,4.60
2023-05-17T16:48:27.215Z,3.53
2023-05-17T16:50:55.665Z,3.15
2023-05-17T16:53:23.440Z,3.75
2023-05-17T16:55:50.835Z,3.53
2023-05-17T16:58:18.774Z,3.72
2023-05-17T17:00:47.347Z,3.85
2023-05-17T17:03:14.776Z,3.25
2023-05-17T17:05:42.161Z,3.63
2023-05-17T17:08:09.492Z,3.58
2023-05-17T17:10:37.004Z,3.60
2023-05-17T17:13:10.014Z,3.70
2023-05-17T17:15:37.357Z,3.22
2023-05-17T17:18:04.842Z,3.65
2023-05-17T17:20:32.209Z,3.05
2023-05-17T17:22:59.571Z,3.22
2023-05-17T17:25:27.116Z,3.28
2023-05-17T17:27:54.605Z,3.42
2023-05-17T17:30:26.508Z,3.60
2023-05-17T17:32:54.144Z,3.00
2023-05-17T17:35:21.665Z,3.42
2023-05-17T17:37:49.342Z,3.70
2023-05-17T17:40:17.710Z,3.88
2023-05-17T17:42:45.330Z,3.25
2023-05-17T17:45:12.994Z,3.22
2023-05-17T17:47:42.274Z,3.22
2023-05-17T17:50:11.601Z,3.45
2023-05-17T17:52:39.131Z,3.25
2023-05-17T17:55:07.658Z,3.20
2023-05-17T17:57:35.206Z,3.40
2023-05-17T18:00:03.053Z,3.28
2023-05-17T18:02:30.475Z,3.70
2023-05-17T18:04:58.238Z,3.60
2023-05-17T18:07:27.165Z,3.30
2023-05-17T18:09:54.767Z,3.20
2023-05-17T18:12:22.377Z,3.60
2023-05-17T18:14:49.884Z,3.47
2023-05-17T18:17:17.219Z,3.72
2023-05-17T18:23:01.738Z,3.50
2023-05-17T18:25:29.189Z,3.33
2023-05-17T18:27:56.565Z,3.75
2023-05-17T18:30:24.878Z,3.42
2023-05-17T18:32:52.305Z,3.33
2023-05-17T18:35:19.802Z,3.33
2023-05-17T18:37:47.190Z,2.55
2023-05-17T18:40:15.026Z,3.20
2023-05-17T18:42:42.526Z,3.33
2023-05-17T18:45:10.999Z,3.13
2023-05-17T18:47:38.507Z,3.30
2023-05-17T18:50:07.522Z,3.10
2023-05-17T18:52:34.935Z,3.28
2023-05-17T18:55:02.307Z,3.70
2023-05-17T18:57:30.054Z,3.25
2023-05-17T18:59:57.436Z,3.88
2023-05-17T19:02:24.788Z,3.10
2023-05-17T19:04:52.424Z,3.15
2023-05-17T19:07:19.760Z,2.95
2023-05-17T19:09:49.467Z,2.97
2023-05-17T19:12:16.807Z,3.42
2023-05-17T19:14:44.738Z,2.90
2023-05-17T19:17:12.211Z,3.25
2023-05-17T19:19:39.617Z,3.28
2023-05-17T19:22:07.059Z,3.03
2023-05-17T19:24:35.418Z,2.72
2023-05-17T19:27:02.944Z,2.92
2023-05-17T19:29:32.645Z,3.80
2023-05-17T19:32:00.069Z,2.80
2023-05-17T19:34:27.560Z,3.00
2023-05-17T19:36:55.004Z,3.55
2023-05-17T19:39:22.452Z,3.47
2023-05-17T19:41:49.869Z,2.88
2023-05-17T19:44:17.301Z,3.35
2023-05-17T19:46:44.720Z,3.00
2023-05-17T19:49:12.412Z,3.10
2023-05-17T19:51:40.001Z,3.03
2023-05-17T19:54:07.418Z,3.10
2023-05-17T19:56:34.824Z,2.67
2023-05-17T19:59:03.811Z,2.70
2023-05-17T20:01:31.465Z,2.80
2023-05-17T20:03:58.905Z,3.00
2023-05-17T20:06:26.597Z,2.95
2023-05-17T20:08:54.006Z,3.10
2023-05-17T20:11:21.626Z,3.28
2023-05-17T20:13:49.053Z,2.80
2023-05-17T20:16:16.433Z,3.10
2023-05-17T20:18:44.727Z,3.15
2023-05-17T20:21:15.304Z,3.10
2023-05-17T20:23:42.947Z,2.58
2023-05-17T20:26:16.604Z,3.10
2023-05-17T20:28:47.207Z,3.17
2023-05-17T20:31:14.609Z,3.13
2023-05-17T20:33:44.205Z,3.13
2023-05-17T20:36:14.152Z,3.00
2023-05-17T20:38:42.451Z,3.47
2023-05-17T20:41:11.140Z,3.20
2023-05-17T20:43:38.604Z,2.92
2023-05-17T20:46:06.851Z,3.28
2023-05-17T20:48:34.967Z,3.03
2023-05-17T20:51:03.415Z,2.95
2023-05-17T20:53:31.337Z,2.58
2023-05-17T20:56:02.017Z,3.30
2023-05-17T20:58:29.477Z,2.95
2023-05-17T21:00:57.729Z,3.05
2023-05-17T21:03:28.382Z,2.47
2023-05-17T21:05:56.435Z,2.65
2023-05-17T21:08:23.997Z,3.10
2023-05-17T21:10:52.779Z,3.15
2023-05-17T21:13:21.696Z,2.60
2023-05-17T21:15:49.132Z,3.08
2023-05-17T21:18:16.478Z,3.08
2023-05-17T21:20:44.161Z,3.28
2023-05-17T21:23:14.716Z,3.40
2023-05-17T21:25:42.076Z,3.55
2023-05-17T21:28:09.627Z,2.88
2023-05-17T21:30:37.276Z,3.30
2023-05-17T21:33:05.627Z,2.85
2023-05-17T21:35:33.162Z,3.08
2023-05-17T21:38:00.622Z,3.08
2023-05-17T21:40:28.285Z,2.92
2023-05-17T21:42:56.413Z,2.92
2023-05-17T21:45:23.933Z,3.50
2023-05-17T21:47:51.627Z,3.00
2023-05-17T21:50:19.336Z,3.08
2023-05-17T21:52:46.751Z,2.88
2023-05-17T21:55:14.286Z,2.78
2023-05-17T21:57:42.151Z,3.50
2023-05-17T22:00:12.904Z,3.25
2023-05-17T22:02:43.280Z,3.28
2023-05-17T22:05:10.755Z,3.75
2023-05-17T22:07:38.723Z,3.42
2023-05-17T22:10:09.365Z,3.55
2023-05-17T22:12:40.940Z,3.85
2023-05-17T22:15:09.661Z,3.60
2023-05-17T22:17:47.847Z,3.95
2023-05-17T22:20:16.843Z,3.15
2023-05-17T22:22:44.273Z,3.88
2023-05-17T22:25:12.028Z,2.95
2023-05-17T22:27:39.397Z,3.45
2023-05-17T22:30:07.712Z,3.55
2023-05-17T22:32:37.356Z,3.70
2023-05-17T22:35:05.736Z,3.50
2023-05-17T22:37:34.058Z,3.35
2023-05-17T22:40:01.510Z,4.13
2023-05-17T22:42:28.925Z,3.20
2023-05-17T22:44:56.247Z,3.05
2023-05-17T22:47:26.615Z,2.90
2023-05-17T22:49:57.826Z,3.10
2023-05-17T22:52:25.179Z,3.55
2023-05-17T22:54:52.527Z,3.38
2023-05-17T22:57:19.822Z,3.60
2023-05-17T22:59:47.372Z,3.15
2023-05-17T23:02:14.808Z,3.10
2023-05-17T23:04:45.974Z,3.63
2023-05-17T23:07:14.959Z,3.05
2023-05-17T23:09:42.352Z,3.13
2023-05-17T23:12:14.164Z,2.92
2023-05-17T23:14:41.671Z,3.23
2023-05-17T23:17:09.955Z,3.08
2023-05-17T23:19:37.456Z,3.35
2023-05-17T23:22:06.502Z,3.28
2023-05-17T23:24:38.600Z,3.63
2023-05-17T23:27:10.367Z,4.27
2023-05-17T23:29:41.362Z,3.70
2023-05-17T23:32:08.771Z,3.60
2023-05-17T23:34:36.522Z,3.30
2023-05-17T23:37:03.873Z,3.25
2023-05-17T23:39:31.473Z,3.80
2023-05-17T23:41:59.228Z,3.85
2023-05-17T23:44:26.523Z,3.72
2023-05-17T23:46:56.251Z,3.80
2023-05-17T23:49:23.584Z,3.40
2023-05-17T23:51:51.017Z,3.53
2023-05-17T23:54:18.447Z,3.45
2023-05-17T23:56:45.791Z,3.55
2023-05-17T23:59:13.158Z,3.70
